createdAt,value
2022-11-27T00:00:21.429Z,99380.00
2022-11-27T00:05:45.021Z,99376.00
2022-11-27T00:10:56.586Z,99360.00
2022-11-27T00:16:00.825Z,99355.00
2022-11-27T00:21:28.380Z,99362.00
2022-11-27T00:26:38.475Z,99364.00
2022-11-27T00:31:49.114Z,99363.00
2022-11-27T00:37:08.135Z,99372.00
2022-11-27T00:42:24.394Z,99362.00
2022-11-27T00:53:10.580Z,99353.00
2022-11-27T00:58:26.845Z,99344.00
2022-11-27T01:03:43.606Z,99340.00
2022-11-27T01:08:48.883Z,99359.00
2022-11-27T01:14:08.839Z,99334.00
2022-11-27T01:19:24.293Z,99320.00
2022-11-27T01:24:28.160Z,99314.00
2022-11-27T01:29:30.864Z,99297.00
2022-11-27T01:34:36.855Z,99279.00
2022-11-27T01:39:39.701Z,99280.00
2022-11-27T01:44:51.508Z,99270.00
2022-11-27T01:49:59.412Z,99267.00
2022-11-27T01:55:10.915Z,99257.00
2022-11-27T02:00:15.574Z,99251.00
2022-11-27T02:05:39.258Z,99256.00
2022-11-27T02:10:53.909Z,99264.00
2022-11-27T02:16:29.936Z,99264.00
2022-11-27T02:22:06.970Z,99269.00
2022-11-27T02:27:51.618Z,99263.00
2022-11-27T02:33:09.334Z,99273.00
2022-11-27T02:38:31.981Z,99273.00
2022-11-27T02:43:54.547Z,99267.00
2022-11-27T02:49:13.267Z,99255.00
2022-11-27T02:54:27.882Z,99243.00
2022-11-27T02:59:35.893Z,99242.00
2022-11-27T03:05:00.604Z,99251.00
2022-11-27T03:10:14.408Z,99256.00
2022-11-27T03:15:17.895Z,99246.00
2022-11-27T03:20:29.496Z,99246.00
2022-11-27T03:25:33.635Z,99237.00
2022-11-27T03:30:37.467Z,99242.00
2022-11-27T03:35:40.263Z,99244.00
2022-11-27T03:41:04.365Z,99235.00
2022-11-27T03:46:34.821Z,99233.00
2022-11-27T03:52:27.452Z,99225.00
2022-11-27T03:58:11.906Z,99237.00
2022-11-27T04:03:44.247Z,99228.00
2022-11-27T04:08:47.844Z,99228.00
2022-11-27T04:14:00.297Z,99222.00
2022-11-27T04:19:10.640Z,99230.00
2022-11-27T04:24:21.168Z,99230.00
2022-11-27T04:29:28.636Z,99224.00
2022-11-27T04:34:31.910Z,99218.00
2022-11-27T04:39:34.736Z,99219.00
2022-11-27T04:44:40.885Z,99229.00
2022-11-27T04:49:43.915Z,99214.00
2022-11-27T04:54:49.795Z,99212.00
2022-11-27T04:59:52.525Z,99204.00
2022-11-27T05:05:14.159Z,99199.00
2022-11-27T05:10:29.130Z,99199.00
2022-11-27T05:21:30.879Z,99204.00
2022-11-27T05:27:02.466Z,99211.00
2022-11-27T05:32:16.257Z,99203.00
2022-11-27T05:37:29.267Z,99199.00
2022-11-27T05:43:09.172Z,99203.00
2022-11-27T05:48:28.508Z,99196.00
2022-11-27T05:53:51.397Z,99193.00
2022-11-27T05:59:03.814Z,99169.00
2022-11-27T06:04:42.850Z,99176.00
2022-11-27T06:09:48.789Z,99179.00
2022-11-27T06:14:51.579Z,99185.00
2022-11-27T06:19:54.430Z,99191.00
2022-11-27T06:25:00.127Z,99175.00
2022-11-27T06:30:06.979Z,99175.00
2022-11-27T06:35:16.737Z,99183.00
2022-11-27T06:40:24.649Z,99177.00
2022-11-27T06:45:28.943Z,99191.00
2022-11-27T06:50:31.885Z,99190.00
2022-11-27T06:55:34.632Z,99182.00
2022-11-27T07:00:40.000Z,99173.00
2022-11-27T07:05:57.122Z,99163.00
2022-11-27T07:11:26.906Z,99165.00
2022-11-27T07:16:46.778Z,99160.00
2022-11-27T07:22:12.890Z,99164.00
2022-11-27T07:27:40.298Z,99153.00
2022-11-27T07:32:59.640Z,99143.00
2022-11-27T07:38:02.875Z,99141.00
2022-11-27T07:43:16.582Z,99137.00
2022-11-27T07:48:36.849Z,99121.00
2022-11-27T07:54:01.555Z,99123.00
2022-11-27T07:59:13.484Z,99107.00
2022-11-27T08:10:28.362Z,99098.00
2022-11-27T08:15:34.745Z,99092.00
2022-11-27T08:20:37.656Z,99101.00
2022-11-27T08:25:43.183Z,99100.00
2022-11-27T08:37:01.057Z,99084.00
2022-11-27T08:42:19.029Z,99091.00
2022-11-27T08:47:45.664Z,99087.00
2022-11-27T08:52:56.867Z,99093.00
2022-11-27T08:58:15.965Z,99081.00
2022-11-27T09:03:41.531Z,99084.00
2022-11-27T09:08:50.222Z,99074.00
2022-11-27T09:13:59.315Z,99075.00
2022-11-27T09:19:12.553Z,99075.00
2022-11-27T09:24:19.365Z,99070.00
2022-11-27T09:29:22.542Z,99067.00
2022-11-27T09:34:25.346Z,99059.00
2022-11-27T09:39:33.402Z,99057.00
2022-11-27T09:44:53.614Z,99052.00
2022-11-27T09:50:05.109Z,99026.00
2022-11-27T09:55:31.892Z,99022.00
2022-11-27T10:00:34.920Z,99030.00
2022-11-27T10:06:34.524Z,99036.00
2022-11-27T10:12:16.866Z,99037.00
2022-11-27T10:17:56.299Z,99028.00
2022-11-27T10:23:26.260Z,99016.00
2022-11-27T10:29:10.983Z,99015.00
2022-11-27T10:34:38.583Z,99003.00
2022-11-27T10:39:48.539Z,99008.00
2022-11-27T10:45:27.392Z,99001.00
2022-11-27T10:50:30.199Z,99003.00
2022-11-27T10:56:31.563Z,98997.00
2022-11-27T11:02:08.191Z,98998.00
2022-11-27T11:07:42.444Z,98993.00
2022-11-27T11:13:15.944Z,99005.00
2022-11-27T11:18:43.590Z,98995.00
2022-11-27T11:24:09.885Z,98989.00
2022-11-27T11:29:46.316Z,98990.00
2022-11-27T11:35:35.054Z,98980.00
2022-11-27T11:40:38.396Z,98985.00
2022-11-27T11:46:24.523Z,98980.00
2022-11-27T11:52:02.351Z,98965.00
2022-11-27T11:57:56.769Z,98954.00
2022-11-27T12:03:22.903Z,98936.00
2022-11-27T12:09:09.538Z,98927.00
2022-11-27T12:14:37.120Z,98926.00
2022-11-27T12:20:13.218Z,98921.00
2022-11-27T12:25:34.882Z,98914.00
2022-11-27T12:30:45.769Z,98917.00
2022-11-27T12:36:25.901Z,98910.00
2022-11-27T12:42:23.845Z,98889.00
2022-11-27T12:47:57.358Z,98883.00
2022-11-27T12:53:31.813Z,98870.00
2022-11-27T12:58:54.868Z,98867.00
2022-11-27T13:04:34.164Z,98861.00
2022-11-27T13:10:09.735Z,98846.00
2022-11-27T13:15:35.326Z,98836.00
2022-11-27T13:20:42.003Z,98830.00
2022-11-27T13:26:09.699Z,98841.00
2022-11-27T13:32:12.454Z,98834.00
2022-11-27T13:37:51.581Z,98818.00
2022-11-27T13:43:31.056Z,98818.00
2022-11-27T13:48:58.395Z,98819.00
2022-11-27T13:54:27.629Z,98818.00
2022-11-27T13:59:39.492Z,98807.00
2022-11-27T14:05:14.386Z,98803.00
2022-11-27T14:10:33.961Z,98806.00
2022-11-27T14:15:44.178Z,98805.00
2022-11-27T14:21:33.038Z,98806.00
2022-11-27T14:26:57.494Z,98787.00
2022-11-27T14:32:38.056Z,98782.00
2022-11-27T14:38:02.038Z,98783.00
2022-11-27T14:43:27.523Z,98768.00
2022-11-27T14:49:05.193Z,98776.00
2022-11-27T14:54:23.896Z,98767.00
2022-11-27T14:59:27.087Z,98771.00
2022-11-27T15:10:02.637Z,98759.00
2022-11-27T15:15:18.236Z,98755.00
2022-11-27T15:20:57.545Z,98736.00
2022-11-27T15:26:29.684Z,98744.00
2022-11-27T15:31:52.920Z,98739.00
2022-11-27T15:37:56.587Z,98736.00
2022-11-27T15:43:01.354Z,98728.00
2022-11-27T15:48:30.778Z,98721.00
2022-11-27T15:53:53.407Z,98723.00
2022-11-27T15:59:03.436Z,98722.00
2022-11-27T16:04:33.081Z,98724.00
2022-11-27T16:09:40.277Z,98709.00
2022-11-27T16:14:43.452Z,98705.00
2022-11-27T16:19:51.393Z,98695.00
2022-11-27T16:24:54.414Z,98692.00
2022-11-27T16:29:57.128Z,98688.00
2022-11-27T16:35:00.014Z,98681.00
2022-11-27T16:40:05.595Z,98674.00
2022-11-27T16:45:09.601Z,98665.00
2022-11-27T16:50:13.337Z,98650.00
2022-11-27T16:55:17.793Z,98648.00
2022-11-27T17:00:21.284Z,98649.00
2022-11-27T17:05:41.636Z,98645.00
2022-11-27T17:10:51.335Z,98626.00
2022-11-27T17:16:20.019Z,98621.00
2022-11-27T17:22:00.189Z,98622.00
2022-11-27T17:27:23.379Z,98607.00
2022-11-27T17:32:38.435Z,98606.00
2022-11-27T17:37:53.082Z,98590.00
2022-11-27T17:43:04.733Z,98588.00
2022-11-27T17:48:20.491Z,98563.00
2022-11-27T17:53:52.359Z,98562.00
2022-11-27T17:59:07.135Z,98553.00
2022-11-27T18:04:18.523Z,98546.00
2022-11-27T18:09:28.656Z,98528.00
2022-11-27T18:14:31.915Z,98510.00
2022-11-27T18:19:34.695Z,98519.00
2022-11-27T18:24:37.616Z,98529.00
2022-11-27T18:29:47.310Z,98518.00
2022-11-27T18:34:54.497Z,98524.00
2022-11-27T18:39:57.311Z,98530.00
2022-11-27T18:45:00.185Z,98522.00
2022-11-27T18:50:03.728Z,98522.00
2022-11-27T18:55:06.642Z,98530.00
2022-11-27T19:00:10.046Z,98548.00
2022-11-27T19:05:33.386Z,98536.00
2022-11-27T19:10:37.150Z,98535.00
2022-11-27T19:15:41.466Z,98527.00
2022-11-27T19:20:44.271Z,98525.00
2022-11-27T19:25:59.761Z,98518.00
2022-11-27T19:31:22.996Z,98511.00
2022-11-27T19:36:46.063Z,98508.00
2022-11-27T19:42:14.762Z,98499.00
2022-11-27T19:47:36.831Z,98498.00
2022-11-27T19:58:23.037Z,98473.00
2022-11-27T20:03:52.089Z,98487.00
2022-11-27T20:09:23.766Z,98472.00
2022-11-27T20:14:44.442Z,98468.00
2022-11-27T20:20:00.565Z,98450.00
2022-11-27T20:25:19.062Z,98446.00
2022-11-27T20:30:23.618Z,98451.00
2022-11-27T20:35:26.346Z,98451.00
2022-11-27T20:40:29.137Z,98455.00
2022-11-27T20:45:31.937Z,98438.00
2022-11-27T20:50:36.942Z,98439.00
2022-11-27T20:55:39.699Z,98436.00
2022-11-27T21:00:44.305Z,98427.00
2022-11-27T21:11:29.348Z,98406.00
2022-11-27T21:17:05.088Z,98392.00
2022-11-27T21:22:22.272Z,98395.00
2022-11-27T21:27:44.836Z,98387.00
2022-11-27T21:32:59.725Z,98382.00
2022-11-27T21:38:17.575Z,98381.00
2022-11-27T21:43:29.321Z,98377.00
2022-11-27T21:48:52.089Z,98378.00
2022-11-27T21:54:03.860Z,98352.00
2022-11-27T21:59:16.317Z,98345.00
2022-11-27T22:04:36.499Z,98342.00
2022-11-27T22:09:45.372Z,98338.00
2022-11-27T22:14:50.733Z,98334.00
2022-11-27T22:19:53.616Z,98320.00
2022-11-27T22:24:56.371Z,98322.00
2022-11-27T22:29:59.201Z,98314.00
2022-11-27T22:35:02.267Z,98313.00
2022-11-27T22:40:05.825Z,98308.00
2022-11-27T22:45:08.978Z,98295.00
2022-11-27T22:50:11.923Z,98295.00
2022-11-27T22:55:14.852Z,98293.00
2022-11-27T23:00:18.091Z,98292.00
2022-11-27T23:05:40.583Z,98292.00
2022-11-27T23:10:59.322Z,98284.00
2022-11-27T23:16:25.541Z,98287.00
2022-11-27T23:21:50.981Z,98275.00
2022-11-27T23:27:20.126Z,98269.00
2022-11-27T23:32:43.571Z,98269.00
2022-11-27T23:37:56.073Z,98254.00
2022-11-27T23:43:08.207Z,98256.00
2022-11-27T23:48:20.296Z,98252.00
2022-11-27T23:53:26.553Z,98245.00
2022-11-27T23:58:46.748Z,98242.00
